PWSweather.com
Personal Weather Stations
Station Observations
SMETHPA
Wilcat Hollow, Upper Marvin Creek, Smethport, PA 16749

Wilcat Hollow, Upper Marvin CreekSmethport, PA 16749

Lat: 41.7178, Lon: -78.5583

Elevation: 1644

Station Type: Davis Vantage Pro 2 Plus

http://www.mckeanweather.com

High Low Average
Temperature 87.8°F31.0°C 58.7°F14.8°C 73.5°F23.1°C
Dew Point 76.1°F24.5°C 57.9°F14.4°C 69.1°F20.6°C
Winds 6.0 mph 9.7 kmh Calm Calm 1.0 mph SE1.6 kmh SE
Wind Gusts 20.0 mph32.2 kmh -- 5.0 mph8.0 kmh
Humidity 100% 63% 87%
Pressure 30.07 in1018.3 mb 29.82 in1009.8 mb -
Precipitation 0.65 in16.5 mm - -
Hour Temp Dew Point Humidity Winds Wind Gusts Pressure Precip Precip Rate Daily Precip Total
12:00 AM 62.9°F17.2°C 60.8°F16.0°C 93% Calm Calm -- 30.06 in1017.9 mb 0.00 in0.0 mm 0.00 in0.0 mm 0.00 in0.0 mm
12:10 AM 62.5°F16.9°C 60.4°F15.8°C 93% Calm Calm -- 30.07 in1018.3 mb 0.00 in0.0 mm 0.00 in0.0 mm 0.00 in0.0 mm
12:20 AM 62.1°F16.7°C 60.1°F15.6°C 93% Calm Calm -- 30.07 in1018.3 mb 0.00 in0.0 mm 0.00 in0.0 mm 0.00 in0.0 mm
12:30 AM 61.7°F16.5°C 59.7°F15.4°C 93% Calm Calm -- 30.06 in1017.9 mb 0.00 in0.0 mm 0.00 in0.0 mm 0.00 in0.0 mm
12:40 AM 61.4°F16.3°C 59.7°F15.4°C 94% Calm Calm -- 30.07 in1018.3 mb 0.00 in0.0 mm 0.00 in0.0 mm 0.00 in0.0 mm
12:50 AM 61.2°F16.2°C 59.5°F15.3°C 94% Calm Calm -- 30.07 in1018.3 mb 0.00 in0.0 mm 0.00 in0.0 mm 0.00 in0.0 mm
01:00 AM 61.1°F16.2°C 59.4°F15.2°C 94% Calm Calm -- 30.07 in1018.3 mb 0.00 in0.0 mm 0.00 in0.0 mm 0.00 in0.0 mm
01:10 AM 61.1°F16.2°C 59.7°F15.4°C 95% Calm Calm -- 30.07 in1018.3 mb 0.00 in0.0 mm 0.00 in0.0 mm 0.00 in0.0 mm
01:20 AM 61.1°F16.2°C 59.7°F15.4°C 95% Calm Calm -- 30.07 in1018.3 mb 0.00 in0.0 mm 0.00 in0.0 mm 0.00 in0.0 mm
01:30 AM 61.0°F16.1°C 59.6°F15.3°C 95% Calm Calm -- 30.07 in1018.3 mb 0.00 in0.0 mm 0.00 in0.0 mm 0.00 in0.0 mm
01:40 AM 61.1°F16.2°C 60.0°F15.6°C 96% Calm Calm -- 30.07 in1018.3 mb 0.00 in0.0 mm 0.00 in0.0 mm 0.00 in0.0 mm
01:50 AM 61.1°F16.2°C 60.0°F15.6°C 96% Calm Calm -- 30.07 in1018.3 mb 0.00 in0.0 mm 0.00 in0.0 mm 0.00 in0.0 mm
02:00 AM 60.9°F16.1°C 59.8°F15.4°C 96% Calm Calm -- 30.06 in1017.9 mb 0.00 in0.0 mm 0.00 in0.0 mm 0.00 in0.0 mm
02:10 AM 60.6°F15.9°C 59.5°F15.3°C 96% Calm Calm -- 30.06 in1017.9 mb 0.00 in0.0 mm 0.00 in0.0 mm 0.00 in0.0 mm
02:20 AM 60.3°F15.7°C 59.2°F15.1°C 96% Calm Calm -- 30.06 in1017.9 mb 0.00 in0.0 mm 0.00 in0.0 mm 0.00 in0.0 mm
02:30 AM 60.1°F15.6°C 59.0°F15.0°C 96% Calm Calm -- 30.06 in1017.9 mb 0.00 in0.0 mm 0.00 in0.0 mm 0.00 in0.0 mm
02:40 AM 59.9°F15.5°C 58.8°F14.9°C 96% Calm Calm -- 30.06 in1017.9 mb 0.00 in0.0 mm 0.00 in0.0 mm 0.00 in0.0 mm
02:50 AM 59.9°F15.5°C 58.8°F14.9°C 96% Calm Calm -- 30.06 in1017.9 mb 0.00 in0.0 mm 0.00 in0.0 mm 0.00 in0.0 mm
03:00 AM 59.8°F15.4°C 58.7°F14.8°C 96% Calm Calm -- 30.06 in1017.9 mb 0.00 in0.0 mm 0.00 in0.0 mm 0.00 in0.0 mm
03:10 AM 59.8°F15.4°C 58.7°F14.8°C 96% Calm Calm -- 30.05 in1017.6 mb 0.00 in0.0 mm 0.00 in0.0 mm 0.00 in0.0 mm
03:20 AM 59.7°F15.4°C 58.8°F14.9°C 97% Calm Calm -- 30.05 in1017.6 mb 0.00 in0.0 mm 0.00 in0.0 mm 0.00 in0.0 mm
03:30 AM 59.7°F15.4°C 58.8°F14.9°C 97% Calm Calm -- 30.06 in1017.9 mb 0.00 in0.0 mm 0.00 in0.0 mm 0.00 in0.0 mm
03:40 AM 59.7°F15.4°C 58.8°F14.9°C 97% Calm Calm -- 30.05 in1017.6 mb 0.00 in0.0 mm 0.00 in0.0 mm 0.00 in0.0 mm
03:50 AM 59.6°F15.3°C 58.7°F14.8°C 97% Calm Calm -- 30.05 in1017.6 mb 0.00 in0.0 mm 0.00 in0.0 mm 0.00 in0.0 mm
04:00 AM 59.6°F15.3°C 58.7°F14.8°C 97% Calm Calm -- 30.05 in1017.6 mb 0.00 in0.0 mm 0.00 in0.0 mm 0.00 in0.0 mm
04:10 AM 59.5°F15.3°C 58.6°F14.8°C 97% Calm Calm -- 30.05 in1017.6 mb 0.00 in0.0 mm 0.00 in0.0 mm 0.00 in0.0 mm
04:20 AM 59.4°F15.2°C 58.5°F14.7°C 97% Calm Calm -- 30.04 in1017.3 mb 0.00 in0.0 mm 0.00 in0.0 mm 0.00 in0.0 mm
04:30 AM 59.3°F15.2°C 58.4°F14.7°C 97% Calm Calm -- 30.04 in1017.3 mb 0.00 in0.0 mm 0.00 in0.0 mm 0.00 in0.0 mm
04:40 AM 59.2°F15.1°C 58.3°F14.6°C 97% Calm Calm -- 30.04 in1017.3 mb 0.00 in0.0 mm 0.00 in0.0 mm 0.00 in0.0 mm
04:50 AM 59.1°F15.1°C 58.2°F14.6°C 97% Calm Calm -- 30.04 in1017.3 mb 0.00 in0.0 mm 0.00 in0.0 mm 0.00 in0.0 mm
05:00 AM 59.0°F15.0°C 58.2°F14.6°C 97% Calm Calm -- 30.04 in1017.3 mb 0.00 in0.0 mm 0.00 in0.0 mm 0.00 in0.0 mm
05:10 AM 58.9°F14.9°C 58.1°F14.5°C 97% Calm Calm -- 30.04 in1017.3 mb 0.00 in0.0 mm 0.00 in0.0 mm 0.00 in0.0 mm
05:20 AM 58.8°F14.9°C 58.0°F14.4°C 97% Calm Calm -- 30.04 in1017.3 mb 0.00 in0.0 mm 0.00 in0.0 mm 0.00 in0.0 mm
05:30 AM 58.8°F14.9°C 58.0°F14.4°C 97% Calm Calm -- 30.04 in1017.3 mb 0.00 in0.0 mm 0.00 in0.0 mm 0.00 in0.0 mm
05:40 AM 58.7°F14.8°C 57.9°F14.4°C 97% Calm Calm -- 30.04 in1017.3 mb 0.00 in0.0 mm 0.00 in0.0 mm 0.00 in0.0 mm
05:50 AM 58.7°F14.8°C 57.9°F14.4°C 97% Calm Calm -- 30.04 in1017.3 mb 0.00 in0.0 mm 0.00 in0.0 mm 0.00 in0.0 mm
06:00 AM 58.8°F14.9°C 58.0°F14.4°C 97% Calm Calm -- 30.03 in1016.9 mb 0.00 in0.0 mm 0.00 in0.0 mm 0.00 in0.0 mm
06:10 AM 58.9°F14.9°C 58.9°F14.9°C 100% Calm Calm -- 30.04 in1017.3 mb 0.00 in0.0 mm 0.00 in0.0 mm 0.00 in0.0 mm
06:20 AM 59.1°F15.1°C 59.1°F15.1°C 100% Calm Calm -- 30.04 in1017.3 mb 0.00 in0.0 mm 0.00 in0.0 mm 0.00 in0.0 mm
06:30 AM 59.5°F15.3°C 59.5°F15.3°C 100% Calm Calm -- 30.03 in1016.9 mb 0.00 in0.0 mm 0.00 in0.0 mm 0.00 in0.0 mm
06:40 AM 59.9°F15.5°C 59.9°F15.5°C 100% Calm Calm -- 30.03 in1016.9 mb 0.00 in0.0 mm 0.00 in0.0 mm 0.00 in0.0 mm
06:50 AM 60.4°F15.8°C 60.1°F15.6°C 99% Calm Calm -- 30.03 in1016.9 mb 0.00 in0.0 mm 0.00 in0.0 mm 0.00 in0.0 mm
07:00 AM 61.1°F16.2°C 60.8°F16.0°C 99% Calm Calm -- 30.03 in1016.9 mb 0.00 in0.0 mm 0.00 in0.0 mm 0.00 in0.0 mm
07:10 AM 62.0°F16.7°C 61.7°F16.5°C 99% Calm Calm -- 30.03 in1016.9 mb 0.00 in0.0 mm 0.00 in0.0 mm 0.00 in0.0 mm
07:20 AM 62.9°F17.2°C 62.6°F17.0°C 99% Calm Calm -- 30.03 in1016.9 mb 0.00 in0.0 mm 0.00 in0.0 mm 0.00 in0.0 mm
07:30 AM 63.9°F17.7°C 63.6°F17.6°C 99% Calm Calm -- 30.03 in1016.9 mb 0.00 in0.0 mm 0.00 in0.0 mm 0.00 in0.0 mm
07:40 AM 65.2°F18.4°C 65.2°F18.4°C 100% Calm Calm -- 30.03 in1016.9 mb 0.00 in0.0 mm 0.00 in0.0 mm 0.00 in0.0 mm
07:50 AM 66.7°F19.3°C 66.7°F19.3°C 100% Calm Calm -- 30.03 in1016.9 mb 0.00 in0.0 mm 0.00 in0.0 mm 0.00 in0.0 mm
08:00 AM 69.0°F20.6°C 69.0°F20.6°C 100% Calm Calm -- 30.02 in1016.6 mb 0.00 in0.0 mm 0.00 in0.0 mm 0.00 in0.0 mm
08:10 AM 70.8°F21.6°C 70.8°F21.6°C 100% Calm Calm -- 30.02 in1016.6 mb 0.00 in0.0 mm 0.00 in0.0 mm 0.00 in0.0 mm
08:20 AM 71.7°F22.1°C 71.7°F22.1°C 100% Calm Calm -- 30.02 in1016.6 mb 0.00 in0.0 mm 0.00 in0.0 mm 0.00 in0.0 mm
08:30 AM 72.8°F22.7°C 72.8°F22.7°C 100% Calm Calm -- 30.02 in1016.6 mb 0.00 in0.0 mm 0.00 in0.0 mm 0.00 in0.0 mm
08:40 AM 73.6°F23.1°C 73.3°F22.9°C 99% Calm Calm 5.0 mph8.0 kmh 30.02 in1016.6 mb 0.00 in0.0 mm 0.00 in0.0 mm 0.00 in0.0 mm
08:50 AM 74.9°F23.8°C 74.0°F23.3°C 97% 1.0 mph S1.6 kmh S 5.0 mph8.0 kmh 30.01 in1016.3 mb 0.00 in0.0 mm 0.00 in0.0 mm 0.00 in0.0 mm
09:00 AM 76.5°F24.7°C 74.3°F23.5°C 93% 1.0 mph S1.6 kmh S 6.0 mph9.7 kmh 30.01 in1016.3 mb 0.00 in0.0 mm 0.00 in0.0 mm 0.00 in0.0 mm
09:10 AM 78.7°F25.9°C 74.8°F23.8°C 88% 1.0 mph S1.6 kmh S 4.0 mph6.4 kmh 30.01 in1016.3 mb 0.00 in0.0 mm 0.00 in0.0 mm 0.00 in0.0 mm
09:20 AM 79.9°F26.6°C 74.3°F23.5°C 83% 1.0 mph SW1.6 kmh SW 9.0 mph14.5 kmh 30.01 in1016.3 mb 0.00 in0.0 mm 0.00 in0.0 mm 0.00 in0.0 mm
09:30 AM 79.9°F26.6°C 73.5°F23.1°C 81% 1.0 mph W1.6 kmh W 5.0 mph8.0 kmh 30.00 in1015.9 mb 0.00 in0.0 mm 0.00 in0.0 mm 0.00 in0.0 mm
09:40 AM 80.1°F26.7°C 74.5°F23.6°C 83% 1.0 mph W1.6 kmh W 5.0 mph8.0 kmh 30.00 in1015.9 mb 0.00 in0.0 mm 0.00 in0.0 mm 0.00 in0.0 mm
09:50 AM 81.3°F27.4°C 74.5°F23.6°C 80% 1.0 mph SSW1.6 kmh SSW 7.0 mph11.3 kmh 30.00 in1015.9 mb 0.00 in0.0 mm 0.00 in0.0 mm 0.00 in0.0 mm
10:00 AM 82.1°F27.8°C 75.3°F24.1°C 80% 2.0 mph S3.2 kmh S 6.0 mph9.7 kmh 30.00 in1015.9 mb 0.00 in0.0 mm 0.00 in0.0 mm 0.00 in0.0 mm
10:10 AM 82.9°F28.3°C 74.6°F23.7°C 76% 1.0 mph SW1.6 kmh SW 7.0 mph11.3 kmh 29.99 in1015.6 mb 0.00 in0.0 mm 0.00 in0.0 mm 0.00 in0.0 mm
10:20 AM 83.9°F28.8°C 75.9°F24.4°C 77% 1.0 mph WSW1.6 kmh WSW 12.0 mph19.3 kmh 29.99 in1015.6 mb 0.00 in0.0 mm 0.00 in0.0 mm 0.00 in0.0 mm
10:30 AM 83.6°F28.7°C 75.6°F24.2°C 77% 2.0 mph W3.2 kmh W 7.0 mph11.3 kmh 29.99 in1015.6 mb 0.00 in0.0 mm 0.00 in0.0 mm 0.00 in0.0 mm
10:40 AM 84.1°F28.9°C 76.1°F24.5°C 77% 1.0 mph WSW1.6 kmh WSW 6.0 mph9.7 kmh 29.99 in1015.6 mb 0.00 in0.0 mm 0.00 in0.0 mm 0.00 in0.0 mm
10:50 AM 84.4°F29.1°C 75.6°F24.2°C 75% 2.0 mph SW3.2 kmh SW 6.0 mph9.7 kmh 29.99 in1015.6 mb 0.00 in0.0 mm 0.00 in0.0 mm 0.00 in0.0 mm
11:00 AM 84.9°F29.4°C 75.7°F24.3°C 74% 3.0 mph WSW4.8 kmh WSW 8.0 mph12.9 kmh 29.99 in1015.6 mb 0.00 in0.0 mm 0.00 in0.0 mm 0.00 in0.0 mm
11:10 AM 85.0°F29.4°C 75.4°F24.1°C 73% 3.0 mph WSW4.8 kmh WSW 11.0 mph17.7 kmh 29.98 in1015.2 mb 0.00 in0.0 mm 0.00 in0.0 mm 0.00 in0.0 mm
11:20 AM 84.4°F29.1°C 74.4°F23.6°C 72% 3.0 mph SW4.8 kmh SW 6.0 mph9.7 kmh 29.98 in1015.2 mb 0.00 in0.0 mm 0.00 in0.0 mm 0.00 in0.0 mm
11:30 AM 84.3°F29.1°C 73.9°F23.3°C 71% 2.0 mph WSW3.2 kmh WSW 12.0 mph19.3 kmh 29.98 in1015.2 mb 0.00 in0.0 mm 0.00 in0.0 mm 0.00 in0.0 mm
11:40 AM 85.5°F29.7°C 74.2°F23.4°C 69% 4.0 mph W6.4 kmh W 12.0 mph19.3 kmh 29.98 in1015.2 mb 0.00 in0.0 mm 0.00 in0.0 mm 0.00 in0.0 mm
11:50 AM 86.0°F30.0°C 73.8°F23.2°C 67% 5.0 mph W8.0 kmh W 14.0 mph22.5 kmh 29.98 in1015.2 mb 0.00 in0.0 mm 0.00 in0.0 mm 0.00 in0.0 mm
12:00 PM 86.9°F30.5°C 74.2°F23.4°C 66% 5.0 mph SW8.0 kmh SW 11.0 mph17.7 kmh 29.97 in1014.9 mb 0.00 in0.0 mm 0.00 in0.0 mm 0.00 in0.0 mm
12:10 PM 86.9°F30.5°C 74.6°F23.7°C 67% 4.0 mph S6.4 kmh S 9.0 mph14.5 kmh 29.96 in1014.6 mb 0.00 in0.0 mm 0.00 in0.0 mm 0.00 in0.0 mm
12:20 PM 87.2°F30.7°C 74.5°F23.6°C 66% 3.0 mph SW4.8 kmh SW 12.0 mph19.3 kmh 29.97 in1014.9 mb 0.00 in0.0 mm 0.00 in0.0 mm 0.00 in0.0 mm
12:30 PM 87.3°F30.7°C 74.1°F23.4°C 65% 4.0 mph SW6.4 kmh SW 12.0 mph19.3 kmh 29.96 in1014.6 mb 0.00 in0.0 mm 0.00 in0.0 mm 0.00 in0.0 mm
12:40 PM 87.3°F30.7°C 74.1°F23.4°C 65% 3.0 mph SW4.8 kmh SW 7.0 mph11.3 kmh 29.95 in1014.2 mb 0.00 in0.0 mm 0.00 in0.0 mm 0.00 in0.0 mm
12:50 PM 87.3°F30.7°C 73.2°F22.9°C 63% 4.0 mph SW6.4 kmh SW 16.0 mph25.7 kmh 29.95 in1014.2 mb 0.00 in0.0 mm 0.00 in0.0 mm 0.00 in0.0 mm
01:00 PM 87.8°F31.0°C 73.6°F23.1°C 63% 5.0 mph SW8.0 kmh SW 12.0 mph19.3 kmh 29.95 in1014.2 mb 0.00 in0.0 mm 0.00 in0.0 mm 0.00 in0.0 mm
01:10 PM 87.7°F30.9°C 74.5°F23.6°C 65% 5.0 mph SSW8.0 kmh SSW 11.0 mph17.7 kmh 29.95 in1014.2 mb 0.00 in0.0 mm 0.00 in0.0 mm 0.00 in0.0 mm
01:20 PM 86.5°F30.3°C 72.9°F22.7°C 64% 4.0 mph SW6.4 kmh SW 11.0 mph17.7 kmh 29.95 in1014.2 mb 0.00 in0.0 mm 0.00 in0.0 mm 0.00 in0.0 mm
01:30 PM 85.2°F29.6°C 72.6°F22.6°C 66% 4.0 mph WSW6.4 kmh WSW 8.0 mph12.9 kmh 29.94 in1013.9 mb 0.00 in0.0 mm 0.00 in0.0 mm 0.00 in0.0 mm
01:40 PM 82.7°F28.2°C 71.1°F21.7°C 68% 3.0 mph W4.8 kmh W 14.0 mph22.5 kmh 29.98 in1015.2 mb 0.00 in0.0 mm 0.00 in0.0 mm 0.00 in0.0 mm
01:50 PM 78.9°F26.1°C 71.8°F22.1°C 79% 4.0 mph SE6.4 kmh SE 8.0 mph12.9 kmh 29.96 in1014.6 mb 0.13 in3.3 mm 0.78 in19.8 mm 0.13 in3.3 mm
02:00 PM 76.9°F24.9°C 71.3°F21.8°C 83% 1.0 mph SSE1.6 kmh SSE 5.0 mph8.0 kmh 29.95 in1014.2 mb 0.16 in4.1 mm 0.04 in1.0 mm 0.16 in4.1 mm
02:10 PM 75.0°F23.9°C 71.5°F21.9°C 89% Calm Calm 7.0 mph11.3 kmh 29.97 in1014.9 mb 0.16 in4.1 mm 0.00 in0.0 mm 0.16 in4.1 mm
02:20 PM 74.3°F23.5°C 71.5°F21.9°C 91% 1.0 mph SW1.6 kmh SW 3.0 mph4.8 kmh 29.96 in1014.6 mb 0.17 in4.3 mm 0.06 in1.5 mm 0.17 in4.3 mm
02:30 PM 74.4°F23.6°C 72.6°F22.6°C 94% 1.0 mph SSW1.6 kmh SSW 4.0 mph6.4 kmh 29.95 in1014.2 mb 0.17 in4.3 mm 0.00 in0.0 mm 0.17 in4.3 mm
02:40 PM 74.2°F23.4°C 72.0°F22.2°C 93% 1.0 mph SW1.6 kmh SW 8.0 mph12.9 kmh 29.95 in1014.2 mb 0.12 in3.0 mm 0.00 in0.0 mm 0.17 in4.3 mm
02:50 PM 74.2°F23.4°C 72.4°F22.4°C 94% 1.0 mph WSW1.6 kmh WSW 1.0 mph1.6 kmh 29.94 in1013.9 mb 0.03 in0.8 mm 0.00 in0.0 mm 0.17 in4.3 mm
03:00 PM 75.8°F24.3°C 73.9°F23.3°C 94% Calm Calm 3.0 mph4.8 kmh 29.95 in1014.2 mb 0.01 in0.3 mm 0.00 in0.0 mm 0.17 in4.3 mm
03:10 PM 77.7°F25.4°C 74.2°F23.4°C 89% 1.0 mph WSW1.6 kmh WSW 5.0 mph8.0 kmh 29.95 in1014.2 mb 0.01 in0.3 mm 0.00 in0.0 mm 0.17 in4.3 mm
03:20 PM 79.3°F26.3°C 74.0°F23.3°C 84% 2.0 mph SW3.2 kmh SW 5.0 mph8.0 kmh 29.94 in1013.9 mb 0.00 in0.0 mm 0.00 in0.0 mm 0.17 in4.3 mm
03:30 PM 80.5°F26.9°C 74.1°F23.4°C 81% 1.0 mph SW1.6 kmh SW 5.0 mph8.0 kmh 29.93 in1013.5 mb 0.00 in0.0 mm 0.00 in0.0 mm 0.17 in4.3 mm
03:40 PM 82.4°F28.0°C 75.2°F24.0°C 79% 2.0 mph WSW3.2 kmh WSW 9.0 mph14.5 kmh 29.92 in1013.2 mb 0.00 in0.0 mm 0.00 in0.0 mm 0.17 in4.3 mm
03:50 PM 82.8°F28.2°C 75.2°F24.0°C 78% 3.0 mph SW4.8 kmh SW 9.0 mph14.5 kmh 29.92 in1013.2 mb 0.00 in0.0 mm 0.00 in0.0 mm 0.17 in4.3 mm
04:00 PM 83.4°F28.6°C 75.4°F24.1°C 77% 2.0 mph SW3.2 kmh SW 10.0 mph16.1 kmh 29.92 in1013.2 mb 0.00 in0.0 mm 0.00 in0.0 mm 0.17 in4.3 mm
04:10 PM 83.8°F28.8°C 75.4°F24.1°C 76% 3.0 mph SW4.8 kmh SW 10.0 mph16.1 kmh 29.91 in1012.9 mb 0.00 in0.0 mm 0.00 in0.0 mm 0.17 in4.3 mm
04:20 PM 83.9°F28.8°C 75.5°F24.2°C 76% 3.0 mph WSW4.8 kmh WSW 16.0 mph25.7 kmh 29.90 in1012.5 mb 0.00 in0.0 mm 0.00 in0.0 mm 0.17 in4.3 mm
04:30 PM 84.4°F29.1°C 74.8°F23.8°C 73% 4.0 mph SW6.4 kmh SW 12.0 mph19.3 kmh 29.89 in1012.2 mb 0.00 in0.0 mm 0.00 in0.0 mm 0.17 in4.3 mm
04:40 PM 84.9°F29.4°C 76.1°F24.5°C 75% 4.0 mph SW6.4 kmh SW 12.0 mph19.3 kmh 29.88 in1011.9 mb 0.00 in0.0 mm 0.00 in0.0 mm 0.17 in4.3 mm
04:50 PM 85.5°F29.7°C 74.6°F23.7°C 70% 3.0 mph WSW4.8 kmh WSW 14.0 mph22.5 kmh 29.87 in1011.5 mb 0.00 in0.0 mm 0.00 in0.0 mm 0.17 in4.3 mm
05:00 PM 85.1°F29.5°C 74.6°F23.7°C 71% 4.0 mph SW6.4 kmh SW 15.0 mph24.1 kmh 29.86 in1011.2 mb 0.00 in0.0 mm 0.00 in0.0 mm 0.17 in4.3 mm
05:10 PM 84.9°F29.4°C 74.4°F23.6°C 71% 3.0 mph SW4.8 kmh SW 10.0 mph16.1 kmh 29.86 in1011.2 mb 0.00 in0.0 mm 0.00 in0.0 mm 0.17 in4.3 mm
05:20 PM 84.5°F29.2°C 74.1°F23.4°C 71% 4.0 mph WSW6.4 kmh WSW 14.0 mph22.5 kmh 29.87 in1011.5 mb 0.00 in0.0 mm 0.00 in0.0 mm 0.17 in4.3 mm
05:30 PM 84.4°F29.1°C 74.4°F23.6°C 72% 3.0 mph WSW4.8 kmh WSW 10.0 mph16.1 kmh 29.86 in1011.2 mb 0.00 in0.0 mm 0.00 in0.0 mm 0.17 in4.3 mm
05:40 PM 84.6°F29.2°C 73.7°F23.2°C 70% 3.0 mph WSW4.8 kmh WSW 9.0 mph14.5 kmh 29.86 in1011.2 mb 0.00 in0.0 mm 0.00 in0.0 mm 0.17 in4.3 mm
05:50 PM 84.3°F29.1°C 74.3°F23.5°C 72% 2.0 mph WSW3.2 kmh WSW 10.0 mph16.1 kmh 29.86 in1011.2 mb 0.00 in0.0 mm 0.00 in0.0 mm 0.17 in4.3 mm
06:00 PM 83.9°F28.8°C 73.9°F23.3°C 72% 3.0 mph WSW4.8 kmh WSW 9.0 mph14.5 kmh 29.86 in1011.2 mb 0.00 in0.0 mm 0.00 in0.0 mm 0.17 in4.3 mm
06:10 PM 83.4°F28.6°C 73.8°F23.2°C 73% 4.0 mph WSW6.4 kmh WSW 10.0 mph16.1 kmh 29.86 in1011.2 mb 0.00 in0.0 mm 0.00 in0.0 mm 0.17 in4.3 mm
06:20 PM 82.9°F28.3°C 73.4°F23.0°C 73% 3.0 mph WSW4.8 kmh WSW 11.0 mph17.7 kmh 29.86 in1011.2 mb 0.00 in0.0 mm 0.00 in0.0 mm 0.17 in4.3 mm
06:30 PM 82.2°F27.9°C 73.5°F23.1°C 75% 3.0 mph WSW4.8 kmh WSW 7.0 mph11.3 kmh 29.86 in1011.2 mb 0.00 in0.0 mm 0.00 in0.0 mm 0.17 in4.3 mm
06:40 PM 81.7°F27.6°C 74.2°F23.4°C 78% 1.0 mph WSW1.6 kmh WSW 4.0 mph6.4 kmh 29.86 in1011.2 mb 0.00 in0.0 mm 0.00 in0.0 mm 0.17 in4.3 mm
06:50 PM 81.3°F27.4°C 73.4°F23.0°C 77% 1.0 mph WSW1.6 kmh WSW 7.0 mph11.3 kmh 29.85 in1010.8 mb 0.00 in0.0 mm 0.00 in0.0 mm 0.17 in4.3 mm
07:00 PM 81.2°F27.3°C 74.1°F23.4°C 79% 1.0 mph WSW1.6 kmh WSW 4.0 mph6.4 kmh 29.85 in1010.8 mb 0.00 in0.0 mm 0.00 in0.0 mm 0.17 in4.3 mm
07:10 PM 80.8°F27.1°C 74.0°F23.3°C 80% Calm Calm 2.0 mph3.2 kmh 29.85 in1010.8 mb 0.00 in0.0 mm 0.00 in0.0 mm 0.17 in4.3 mm
07:20 PM 80.4°F26.9°C 74.0°F23.3°C 81% Calm Calm 1.0 mph1.6 kmh 29.84 in1010.5 mb 0.00 in0.0 mm 0.00 in0.0 mm 0.17 in4.3 mm
07:30 PM 79.7°F26.5°C 73.7°F23.2°C 82% Calm Calm 1.0 mph1.6 kmh 29.84 in1010.5 mb 0.00 in0.0 mm 0.00 in0.0 mm 0.17 in4.3 mm
07:40 PM 78.9°F26.1°C 73.7°F23.2°C 84% Calm Calm 1.0 mph1.6 kmh 29.84 in1010.5 mb 0.00 in0.0 mm 0.00 in0.0 mm 0.17 in4.3 mm
07:50 PM 78.5°F25.8°C 73.6°F23.1°C 85% Calm Calm 1.0 mph1.6 kmh 29.83 in1010.2 mb 0.00 in0.0 mm 0.00 in0.0 mm 0.17 in4.3 mm
08:00 PM 77.9°F25.5°C 73.4°F23.0°C 86% Calm Calm 1.0 mph1.6 kmh 29.83 in1010.2 mb 0.00 in0.0 mm 0.00 in0.0 mm 0.17 in4.3 mm
08:10 PM 77.4°F25.2°C 73.2°F22.9°C 87% Calm Calm 1.0 mph1.6 kmh 29.84 in1010.5 mb 0.00 in0.0 mm 0.00 in0.0 mm 0.17 in4.3 mm
08:20 PM 76.8°F24.9°C 73.0°F22.8°C 88% Calm Calm 1.0 mph1.6 kmh 29.82 in1009.8 mb 0.00 in0.0 mm 0.00 in0.0 mm 0.17 in4.3 mm
08:30 PM 76.4°F24.7°C 72.9°F22.7°C 89% Calm Calm 1.0 mph1.6 kmh 29.83 in1010.2 mb 0.00 in0.0 mm 0.00 in0.0 mm 0.17 in4.3 mm
08:40 PM 75.9°F24.4°C 72.8°F22.7°C 90% Calm Calm 2.0 mph3.2 kmh 29.83 in1010.2 mb 0.01 in0.3 mm 0.06 in1.5 mm 0.18 in4.6 mm
08:50 PM 75.6°F24.2°C 72.8°F22.7°C 91% Calm Calm 1.0 mph1.6 kmh 29.84 in1010.5 mb 0.02 in0.5 mm 0.06 in1.5 mm 0.19 in4.8 mm
09:00 PM 75.1°F23.9°C 72.6°F22.6°C 92% 1.0 mph NW1.6 kmh NW 10.0 mph16.1 kmh 29.87 in1011.5 mb 0.09 in2.3 mm 0.08 in2.0 mm 0.26 in6.6 mm
09:10 PM 73.3°F22.9°C 71.2°F21.8°C 93% 5.0 mph NE8.0 kmh NE 20.0 mph32.2 kmh 29.87 in1011.5 mb 0.25 in6.4 mm 0.96 in24.4 mm 0.42 in10.7 mm
09:20 PM 72.9°F22.7°C 71.1°F21.7°C 94% 6.0 mph NW9.7 kmh NW 12.0 mph19.3 kmh 29.87 in1011.5 mb 0.35 in8.9 mm 0.60 in15.2 mm 0.52 in13.2 mm
09:30 PM 72.7°F22.6°C 70.9°F21.6°C 94% 2.0 mph NW3.2 kmh NW 3.0 mph4.8 kmh 29.87 in1011.5 mb 0.36 in9.1 mm 0.06 in1.5 mm 0.53 in13.5 mm
09:40 PM 72.5°F22.5°C 71.0°F21.7°C 95% 1.0 mph NW1.6 kmh NW 4.0 mph6.4 kmh 29.87 in1011.5 mb 0.36 in9.1 mm 0.00 in0.0 mm 0.54 in13.7 mm
09:50 PM 72.3°F22.4°C 70.8°F21.6°C 95% Calm Calm 2.0 mph3.2 kmh 29.87 in1011.5 mb 0.35 in8.9 mm 0.00 in0.0 mm 0.54 in13.7 mm
10:00 PM 72.0°F22.2°C 70.5°F21.4°C 95% 1.0 mph NW1.6 kmh NW 4.0 mph6.4 kmh 29.88 in1011.9 mb 0.27 in6.9 mm 0.00 in0.0 mm 0.54 in13.7 mm
10:10 PM 71.9°F22.2°C 70.7°F21.5°C 96% 1.0 mph NW1.6 kmh NW 3.0 mph4.8 kmh 29.88 in1011.9 mb 0.11 in2.8 mm 0.00 in0.0 mm 0.54 in13.7 mm
10:20 PM 71.7°F22.1°C 70.5°F21.4°C 96% 1.0 mph WNW1.6 kmh WNW 10.0 mph16.1 kmh 29.88 in1011.9 mb 0.07 in1.8 mm 0.00 in0.0 mm 0.59 in15.0 mm
10:30 PM 71.6°F22.0°C 70.4°F21.3°C 96% 1.0 mph WSW1.6 kmh WSW 4.0 mph6.4 kmh 29.88 in1011.9 mb 0.06 in1.5 mm 0.00 in0.0 mm 0.60 in15.2 mm
10:40 PM 71.5°F21.9°C 70.6°F21.4°C 97% 1.0 mph WSW1.6 kmh WSW 2.0 mph3.2 kmh 29.88 in1011.9 mb 0.06 in1.5 mm 0.00 in0.0 mm 0.60 in15.2 mm
10:50 PM 71.4°F21.9°C 70.5°F21.4°C 97% Calm Calm 2.0 mph3.2 kmh 29.88 in1011.9 mb 0.08 in2.0 mm 0.12 in3.0 mm 0.62 in15.7 mm
11:00 PM 71.3°F21.8°C 70.4°F21.3°C 97% 1.0 mph WSW1.6 kmh WSW 3.0 mph4.8 kmh 29.88 in1011.9 mb 0.10 in2.5 mm 0.02 in0.5 mm 0.64 in16.3 mm
11:10 PM 71.2°F21.8°C 70.3°F21.3°C 97% Calm Calm 2.0 mph3.2 kmh 29.88 in1011.9 mb 0.11 in2.8 mm 0.06 in1.5 mm 0.65 in16.5 mm
11:20 PM 71.1°F21.7°C 70.2°F21.2°C 97% Calm Calm 1.0 mph1.6 kmh 29.87 in1011.5 mb 0.06 in1.5 mm 0.00 in0.0 mm 0.65 in16.5 mm
11:30 PM 71.1°F21.7°C 70.2°F21.2°C 97% Calm Calm 1.0 mph1.6 kmh 29.87 in1011.5 mb 0.05 in1.3 mm 0.00 in0.0 mm 0.65 in16.5 mm
11:40 PM 71.1°F21.7°C 71.1°F21.7°C 100% Calm Calm 2.0 mph3.2 kmh 29.87 in1011.5 mb 0.05 in1.3 mm 0.00 in0.0 mm 0.65 in16.5 mm
11:50 PM 71.1°F21.7°C 71.1°F21.7°C 100% Calm Calm 3.0 mph4.8 kmh 29.87 in1011.5 mb 0.02 in0.5 mm 0.00 in0.0 mm 0.65 in16.5 mm